Time;durP1;ratioP1;P1;durP2;ratioP2;P2;SDS_P1;SDS_P2;PMS_P1;PMS_P2;Temp;Humidity;BMP_temperature;BMP_pressure;BME280_temperature;BME280_humidity;BME280_pressure;Samples;Min_cycle;Max_cycle;Signal;HPM_P1;HPM_P2
2022/01/16 00:00:37;;;;;;;12.23;9.43;;;;;;;;;;5046273;28;20173;-56
2022/01/16 00:05:49;;;;;;;11.47;10.00;;;;;;;;;;5046162;28;20243;-55
2022/01/16 00:08:15;;;;;;;11.13;9.73;;;;;;;;;;5047332;28;20419;-56
2022/01/16 00:10:41;;;;;;;12.40;8.83;;;;;;;;;;5046225;28;20431;-56
2022/01/16 00:13:07;;;;;;;12.67;9.63;;;;;;;;;;5049463;28;20506;-56
2022/01/16 00:15:33;;;;;;;11.70;9.27;;;;;;;;;;5046074;28;20587;-56
2022/01/16 00:18:18;;;;;;;12.30;10.07;;;;;;;;;;5046745;28;20508;-56
2022/01/16 00:20:44;;;;;;;10.83;9.07;;;;;;;;;;5047042;28;20161;-56
2022/01/16 00:23:10;;;;;;;12.77;11.17;;;;;;;;;;5045049;28;20423;-55
2022/01/16 00:25:37;;;;;;;11.90;9.73;;;;;;;;;;5045941;28;20181;-55
2022/01/16 00:28:03;;;;;;;12.60;10.37;;;;;;;;;;5045204;28;20173;-56
2022/01/16 00:30:29;;;;;;;11.20;9.50;;;;;;;;;;5050690;28;20624;-55
2022/01/16 00:33:00;;;;;;;14.00;10.10;;;;;;;;;;5046476;28;20946;-56
2022/01/16 00:35:27;;;;;;;12.37;10.37;;;;;;;;;;5043029;28;20470;-56
2022/01/16 00:37:53;;;;;;;12.23;9.77;;;;;;;;;;5056269;28;20267;-57
2022/01/16 00:40:19;;;;;;;11.70;10.17;;;;;;;;;;5043733;28;20170;-56
2022/01/16 00:42:45;;;;;;;11.93;9.87;;;;;;;;;;5046120;28;20182;-57
2022/01/16 00:45:12;;;;;;;10.80;9.40;;;;;;;;;;5045500;28;20288;-56
2022/01/16 00:47:38;;;;;;;13.43;10.27;;;;;;;;;;5044192;28;20694;-55
2022/01/16 00:50:05;;;;;;;13.77;10.83;;;;;;;;;;5046813;28;20462;-56
2022/01/16 00:52:31;;;;;;;14.00;10.93;;;;;;;;;;5046750;28;20463;-56
2022/01/16 00:55:02;;;;;;;12.23;9.67;;;;;;;;;;5045270;28;20489;-57
2022/01/16 00:57:29;;;;;;;13.80;11.37;;;;;;;;;;5043785;28;20579;-56
2022/01/16 00:59:55;;;;;;;12.27;9.93;;;;;;;;;;5048306;28;20416;-56
2022/01/16 01:02:23;;;;;;;13.17;10.20;;;;;;;;;;5049333;28;20443;-55
2022/01/16 01:04:52;;;;;;;11.37;10.17;;;;;;;;;;5051295;28;20852;-55
2022/01/16 01:07:19;;;;;;;12.23;10.17;;;;;;;;;;5052380;28;20462;-56
2022/01/16 01:09:45;;;;;;;14.53;10.50;;;;;;;;;;5054167;28;20200;-56
2022/01/16 01:12:20;;;;;;;13.27;10.30;;;;;;;;;;5050485;28;20454;-55
2022/01/16 01:15:05;;;;;;;14.60;10.80;;;;;;;;;;5048325;28;20203;-56
2022/01/16 01:17:35;;;;;;;13.30;10.47;;;;;;;;;;5049686;28;20165;-56
2022/01/16 01:20:01;;;;;;;13.80;11.57;;;;;;;;;;5050915;28;20177;-57
2022/01/16 01:22:28;;;;;;;16.40;12.03;;;;;;;;;;5053015;28;20513;-56
2022/01/16 01:24:54;;;;;;;14.00;11.33;;;;;;;;;;5050780;28;20177;-56
2022/01/16 01:27:23;;;;;;;15.30;11.63;;;;;;;;;;5051234;28;20431;-56
2022/01/16 01:30:11;;;;;;;14.73;11.23;;;;;;;;;;5050916;28;20710;-56
2022/01/16 01:32:38;;;;;;;18.10;12.80;;;;;;;;;;5046063;28;20200;-55
2022/01/16 01:35:08;;;;;;;14.90;11.27;;;;;;;;;;5050754;28;20785;-55
2022/01/16 01:37:35;;;;;;;16.63;12.50;;;;;;;;;;5052222;28;20419;-56
2022/01/16 01:40:01;;;;;;;16.20;12.53;;;;;;;;;;5049467;28;20420;-55
2022/01/16 01:42:42;;;;;;;14.90;11.87;;;;;;;;;;5037740;28;20192;-56
2022/01/16 01:53:22;;;;;;;16.07;11.03;;;;;;;;;;5051464;28;20533;-56
2022/01/16 01:55:49;;;;;;;15.50;11.87;;;;;;;;;;5052958;28;20923;-57
2022/01/16 01:58:15;;;;;;;14.93;11.87;;;;;;;;;;5051694;28;20473;-56
2022/01/16 02:00:42;;;;;;;17.27;11.43;;;;;;;;;;5055242;28;20534;-55
2022/01/16 02:03:16;;;;;;;14.30;11.13;;;;;;;;;;5050726;28;20428;-55
2022/01/16 02:05:43;;;;;;;13.80;10.60;;;;;;;;;;5045355;28;20633;-56
2022/01/16 02:08:09;;;;;;;16.13;11.50;;;;;;;;;;5051439;28;20767;-55
2022/01/16 02:10:37;;;;;;;17.07;12.30;;;;;;;;;;5047949;28;20447;-55
2022/01/16 02:13:06;;;;;;;14.93;12.10;;;;;;;;;;5049443;28;21283;-55
2022/01/16 02:31:59;;;;;;;16.30;12.87;;;;;;;;;;5042103;28;20444;-56
2022/01/16 02:34:32;;;;;;;17.03;12.73;;;;;;;;;;5048618;28;20844;-56
2022/01/16 02:37:02;;;;;;;17.10;12.17;;;;;;;;;;5048746;28;20169;-56
2022/01/16 02:39:34;;;;;;;19.83;13.77;;;;;;;;;;5045155;28;20436;-56
2022/01/16 02:42:00;;;;;;;16.93;12.33;;;;;;;;;;5051291;28;20450;-56
2022/01/16 02:46:54;;;;;;;21.17;14.03;;;;;;;;;;5046912;28;20220;-56
2022/01/16 02:49:24;;;;;;;18.37;12.87;;;;;;;;;;5048258;28;20423;-56
2022/01/16 02:51:52;;;;;;;20.17;13.20;;;;;;;;;;5046760;28;20471;-56
2022/01/16 02:54:18;;;;;;;22.27;13.87;;;;;;;;;;5047470;28;20514;-56
2022/01/16 02:56:45;;;;;;;18.40;12.67;;;;;;;;;;5046578;28;20469;-57
2022/01/16 02:59:12;;;;;;;16.63;13.07;;;;;;;;;;5049108;28;20404;-56
2022/01/16 03:01:54;;;;;;;18.97;14.27;;;;;;;;;;5048160;28;20427;-56
2022/01/16 03:04:20;;;;;;;18.70;13.33;;;;;;;;;;5050022;28;20854;-56
2022/01/16 03:06:47;;;;;;;21.23;14.07;;;;;;;;;;5050153;28;20176;-56
2022/01/16 03:09:14;;;;;;;19.10;14.13;;;;;;;;;;5046603;28;20416;-55
2022/01/16 03:11:48;;;;;;;24.43;15.37;;;;;;;;;;5053582;28;20466;-57
2022/01/16 03:14:16;;;;;;;23.70;14.43;;;;;;;;;;5048125;28;20510;-56
2022/01/16 03:16:49;;;;;;;19.80;13.83;;;;;;;;;;5050889;28;20921;-55
2022/01/16 03:22:04;;;;;;;19.13;13.50;;;;;;;;;;5048663;28;20768;-56
2022/01/16 03:24:34;;;;;;;22.87;14.83;;;;;;;;;;5046872;28;20423;-56
2022/01/16 03:27:02;;;;;;;22.47;14.37;;;;;;;;;;5049579;28;20971;-56
2022/01/16 03:29:28;;;;;;;21.60;15.17;;;;;;;;;;5050885;28;20828;-55
2022/01/16 03:31:55;;;;;;;20.47;13.57;;;;;;;;;;5046151;28;20860;-57
2022/01/16 03:34:21;;;;;;;22.57;14.43;;;;;;;;;;5050852;28;20424;-55
2022/01/16 03:36:48;;;;;;;21.87;14.30;;;;;;;;;;5048471;28;20991;-55
2022/01/16 03:39:14;;;;;;;21.60;14.20;;;;;;;;;;5048874;28;20866;-56
2022/01/16 03:41:41;;;;;;;20.60;13.70;;;;;;;;;;5051413;28;20181;-56
2022/01/16 03:44:08;;;;;;;24.07;14.87;;;;;;;;;;5045107;28;20427;-56
2022/01/16 03:46:41;;;;;;;23.20;14.63;;;;;;;;;;5046960;28;20791;-56
2022/01/16 03:49:09;;;;;;;24.50;14.47;;;;;;;;;;5047465;28;20185;-57
2022/01/16 03:51:36;;;;;;;21.63;13.80;;;;;;;;;;5045623;28;20474;-57
2022/01/16 03:54:02;;;;;;;22.07;14.87;;;;;;;;;;5049435;28;20467;-57
2022/01/16 03:56:28;;;;;;;22.57;15.23;;;;;;;;;;5047169;28;20227;-57
2022/01/16 03:58:55;;;;;;;19.63;14.60;;;;;;;;;;5047418;28;20514;-55
2022/01/16 04:01:21;;;;;;;21.57;14.30;;;;;;;;;;5054744;28;20793;-56
2022/01/16 04:03:47;;;;;;;20.97;14.77;;;;;;;;;;5050380;28;20267;-57
2022/01/16 04:06:14;;;;;;;22.27;15.20;;;;;;;;;;5054288;28;20173;-56
2022/01/16 04:08:40;;;;;;;22.73;15.30;;;;;;;;;;5048725;28;20185;-56
2022/01/16 04:11:06;;;;;;;23.73;15.37;;;;;;;;;;5048182;28;20190;-56
2022/01/16 04:13:32;;;;;;;21.63;14.80;;;;;;;;;;5050782;28;20431;-57
2022/01/16 04:15:58;;;;;;;22.90;15.03;;;;;;;;;;5046915;28;20223;-56
2022/01/16 04:18:24;;;;;;;23.17;15.00;;;;;;;;;;5053295;28;20448;-55
2022/01/16 04:20:53;;;;;;;24.07;15.50;;;;;;;;;;5044697;28;20181;-56
2022/01/16 04:23:19;;;;;;;23.43;15.33;;;;;;;;;;5046200;28;20442;-56
2022/01/16 04:25:45;;;;;;;25.83;16.83;;;;;;;;;;5048976;28;20212;-57
2022/01/16 04:28:11;;;;;;;24.97;16.03;;;;;;;;;;5053336;28;20431;-56
2022/01/16 04:30:38;;;;;;;25.67;16.40;;;;;;;;;;5049164;28;20425;-56
2022/01/16 04:33:04;;;;;;;23.87;15.50;;;;;;;;;;5053725;28;20208;-55
2022/01/16 04:35:30;;;;;;;25.37;15.80;;;;;;;;;;5054678;28;20276;-56
2022/01/16 04:37:59;;;;;;;24.20;17.93;;;;;;;;;;5051897;28;20208;-56
2022/01/16 04:40:25;;;;;;;25.20;17.27;;;;;;;;;;5052074;28;20462;-57
2022/01/16 04:45:36;;;;;;;25.93;17.47;;;;;;;;;;5054504;28;20491;-55
2022/01/16 04:48:03;;;;;;;22.93;16.10;;;;;;;;;;5054702;28;20821;-56
2022/01/16 04:50:29;;;;;;;29.27;18.73;;;;;;;;;;5033057;28;20922;-56
2022/01/16 04:52:55;;;;;;;25.30;16.33;;;;;;;;;;5054331;28;20467;-56
2022/01/16 04:55:24;;;;;;;24.83;16.10;;;;;;;;;;5049056;28;20477;-56
2022/01/16 04:57:50;;;;;;;26.40;17.87;;;;;;;;;;5052510;28;20446;-56
2022/01/16 05:00:19;;;;;;;28.20;17.73;;;;;;;;;;5049402;28;20577;-57
2022/01/16 05:02:45;;;;;;;28.97;18.37;;;;;;;;;;5057073;28;20173;-57
2022/01/16 05:05:12;;;;;;;28.90;17.67;;;;;;;;;;5053121;28;20426;-57
2022/01/16 05:07:41;;;;;;;31.03;18.47;;;;;;;;;;5060304;28;20469;-56
2022/01/16 05:10:07;;;;;;;23.63;17.83;;;;;;;;;;5054476;28;20558;-56
2022/01/16 05:12:36;;;;;;;25.63;17.47;;;;;;;;;;5056128;28;20469;-55
2022/01/16 05:17:48;;;;;;;26.20;18.67;;;;;;;;;;5056714;28;20411;-56
2022/01/16 05:20:14;;;;;;;32.07;19.30;;;;;;;;;;5054962;28;20246;-56
2022/01/16 05:22:40;;;;;;;32.40;19.27;;;;;;;;;;5049015;28;20426;-55
2022/01/16 05:25:08;;;;;;;27.43;18.57;;;;;;;;;;5050522;28;20509;-55
2022/01/16 05:27:37;;;;;;;31.90;20.47;;;;;;;;;;5048989;28;20423;-56
2022/01/16 05:30:04;;;;;;;32.77;18.30;;;;;;;;;;5042194;28;20231;-56
2022/01/16 05:32:30;;;;;;;33.10;18.47;;;;;;;;;;5060573;28;20641;-56
2022/01/16 05:34:59;;;;;;;38.87;21.10;;;;;;;;;;5047912;28;20428;-56
2022/01/16 05:37:25;;;;;;;30.10;19.83;;;;;;;;;;5058964;28;20502;-55
2022/01/16 05:39:51;;;;;;;31.20;19.47;;;;;;;;;;5056188;28;20501;-56
2022/01/16 05:42:17;;;;;;;34.53;19.63;;;;;;;;;;5054718;28;20184;-56
2022/01/16 05:44:43;;;;;;;27.90;19.10;;;;;;;;;;5045065;28;20421;-56
2022/01/16 05:47:12;;;;;;;30.10;19.70;;;;;;;;;;5052530;28;20785;-55
2022/01/16 05:49:39;;;;;;;27.70;17.97;;;;;;;;;;5052273;28;20420;-56
2022/01/16 05:52:06;;;;;;;31.73;19.23;;;;;;;;;;5060205;28;20482;-57
2022/01/16 05:54:33;;;;;;;34.00;20.37;;;;;;;;;;5050309;28;20834;-57
2022/01/16 05:56:59;;;;;;;34.97;21.47;;;;;;;;;;5050373;28;20446;-57
2022/01/16 05:59:25;;;;;;;36.60;20.30;;;;;;;;;;5059737;28;20978;-56
2022/01/16 06:01:54;;;;;;;32.90;18.47;;;;;;;;;;5048392;28;20423;-57
2022/01/16 06:04:20;;;;;;;31.27;20.33;;;;;;;;;;5049297;28;20415;-57
2022/01/16 06:06:46;;;;;;;27.83;18.83;;;;;;;;;;5058313;28;20422;-55
2022/01/16 06:09:12;;;;;;;34.87;19.47;;;;;;;;;;5052381;28;20507;-57
2022/01/16 06:11:38;;;;;;;28.37;18.63;;;;;;;;;;5055188;28;20573;-56
2022/01/16 06:14:04;;;;;;;32.93;19.83;;;;;;;;;;5046712;28;20231;-57
2022/01/16 06:16:31;;;;;;;32.93;20.67;;;;;;;;;;5052597;28;20914;-57
2022/01/16 06:18:57;;;;;;;32.43;19.43;;;;;;;;;;5050450;28;20477;-56
2022/01/16 06:21:23;;;;;;;32.57;20.27;;;;;;;;;;5045509;28;20434;-56
2022/01/16 06:23:49;;;;;;;31.53;18.83;;;;;;;;;;5046092;28;20482;-57
2022/01/16 06:26:16;;;;;;;33.63;20.97;;;;;;;;;;5047205;28;20453;-56
2022/01/16 06:28:42;;;;;;;26.70;18.43;;;;;;;;;;5045404;28;20435;-56
2022/01/16 06:31:08;;;;;;;32.30;20.00;;;;;;;;;;5047381;28;20430;-57
2022/01/16 06:33:34;;;;;;;32.53;19.77;;;;;;;;;;5043258;28;20412;-55
2022/01/16 06:36:01;;;;;;;31.33;19.93;;;;;;;;;;5046966;28;20950;-56
2022/01/16 06:38:27;;;;;;;34.03;19.53;;;;;;;;;;5047727;28;20432;-57
2022/01/16 06:40:54;;;;;;;33.77;20.93;;;;;;;;;;5054119;28;20875;-56
2022/01/16 06:43:20;;;;;;;30.47;19.27;;;;;;;;;;5044172;28;20411;-56
2022/01/16 06:45:46;;;;;;;35.83;21.57;;;;;;;;;;5044136;28;20820;-56
2022/01/16 06:48:13;;;;;;;33.80;22.03;;;;;;;;;;5047275;28;20420;-56
2022/01/16 06:50:39;;;;;;;31.10;19.43;;;;;;;;;;5047770;28;20467;-56
2022/01/16 06:53:05;;;;;;;34.67;21.47;;;;;;;;;;5046353;28;21002;-55
2022/01/16 06:55:31;;;;;;;32.37;21.70;;;;;;;;;;5044444;28;20934;-56
2022/01/16 06:57:57;;;;;;;28.97;19.80;;;;;;;;;;5051379;28;20484;-56
2022/01/16 07:00:24;;;;;;;33.77;21.00;;;;;;;;;;5047829;28;20415;-56
2022/01/16 07:02:53;;;;;;;31.53;19.80;;;;;;;;;;5045185;28;20454;-57
2022/01/16 07:05:19;;;;;;;33.00;20.63;;;;;;;;;;5048168;28;20457;-56
2022/01/16 07:07:45;;;;;;;35.30;21.73;;;;;;;;;;5046670;28;20416;-56
2022/01/16 07:10:11;;;;;;;29.13;19.67;;;;;;;;;;5047430;28;20447;-56
2022/01/16 07:12:37;;;;;;;34.77;21.90;;;;;;;;;;5050374;28;20459;-57
2022/01/16 07:15:04;;;;;;;31.60;20.97;;;;;;;;;;5045669;28;20536;-57
2022/01/16 07:17:39;;;;;;;36.77;21.90;;;;;;;;;;5047711;28;20522;-56
2022/01/16 07:20:06;;;;;;;28.03;19.77;;;;;;;;;;5039414;28;20510;-55
2022/01/16 07:22:32;;;;;;;35.50;21.37;;;;;;;;;;5046162;28;20422;-56
2022/01/16 07:24:58;;;;;;;33.43;22.10;;;;;;;;;;5049269;28;20435;-56
2022/01/16 07:27:24;;;;;;;33.30;22.63;;;;;;;;;;5049210;28;20428;-55
2022/01/16 07:29:52;;;;;;;30.73;21.30;;;;;;;;;;5047592;28;20482;-56
2022/01/16 07:32:18;;;;;;;33.60;21.30;;;;;;;;;;5047601;28;20463;-56
2022/01/16 07:34:44;;;;;;;35.87;21.57;;;;;;;;;;5046632;28;20851;-56
2022/01/16 07:37:10;;;;;;;34.73;22.87;;;;;;;;;;5039604;28;20424;-56
2022/01/16 07:39:37;;;;;;;30.60;21.40;;;;;;;;;;5043284;28;20914;-57
2022/01/16 07:42:06;;;;;;;32.17;22.23;;;;;;;;;;5026123;28;20464;-56
2022/01/16 07:44:32;;;;;;;27.53;21.17;;;;;;;;;;5044732;28;20608;-57
2022/01/16 07:47:01;;;;;;;34.83;22.40;;;;;;;;;;5048949;28;20882;-56
2022/01/16 07:49:27;;;;;;;32.53;21.43;;;;;;;;;;5052281;28;20873;-57
2022/01/16 07:51:54;;;;;;;33.67;23.40;;;;;;;;;;5054078;28;20561;-57
2022/01/16 07:54:20;;;;;;;32.67;22.43;;;;;;;;;;5047563;28;20420;-57
2022/01/16 07:56:49;;;;;;;32.70;21.53;;;;;;;;;;5055234;28;20878;-57
2022/01/16 07:59:16;;;;;;;32.47;22.47;;;;;;;;;;5053081;28;20772;-55
2022/01/16 08:01:42;;;;;;;33.70;23.03;;;;;;;;;;5051249;28;20420;-57
2022/01/16 08:04:09;;;;;;;35.50;22.90;;;;;;;;;;5047731;28;20419;-56
2022/01/16 08:06:35;;;;;;;33.13;22.07;;;;;;;;;;5045352;28;20427;-56
2022/01/16 08:09:01;;;;;;;32.73;24.13;;;;;;;;;;5057518;28;20177;-56
2022/01/16 08:11:27;;;;;;;33.17;23.37;;;;;;;;;;5045930;28;20551;-57
2022/01/16 08:13:53;;;;;;;35.07;23.70;;;;;;;;;;5057832;28;20918;-56
2022/01/16 08:16:20;;;;;;;34.90;23.03;;;;;;;;;;5055782;28;20411;-56
2022/01/16 08:18:46;;;;;;;34.07;22.87;;;;;;;;;;5051612;28;20431;-56
2022/01/16 08:21:12;;;;;;;34.70;24.00;;;;;;;;;;5052134;28;20418;-55
2022/01/16 08:23:38;;;;;;;32.83;22.97;;;;;;;;;;5049097;28;20189;-57
2022/01/16 08:26:04;;;;;;;34.07;23.43;;;;;;;;;;5049775;28;20591;-56
2022/01/16 08:28:30;;;;;;;33.10;24.87;;;;;;;;;;5050060;28;20431;-56
2022/01/16 08:30:59;;;;;;;35.10;24.70;;;;;;;;;;5048805;28;20184;-53
2022/01/16 08:33:25;;;;;;;38.33;26.53;;;;;;;;;;5053605;28;21048;-57
2022/01/16 08:35:51;;;;;;;44.07;25.23;;;;;;;;;;5047790;28;20200;-56
2022/01/16 08:38:18;;;;;;;33.53;24.73;;;;;;;;;;5049665;28;20812;-56
2022/01/16 08:40:44;;;;;;;39.07;25.60;;;;;;;;;;5050067;28;20428;-56
2022/01/16 08:43:10;;;;;;;41.93;27.33;;;;;;;;;;5034504;28;20430;-56
2022/01/16 08:45:38;;;;;;;39.00;25.90;;;;;;;;;;5046867;28;20443;-57
2022/01/16 08:48:05;;;;;;;36.57;25.57;;;;;;;;;;5049879;28;20184;-56
2022/01/16 08:50:31;;;;;;;36.10;24.70;;;;;;;;;;5053509;28;20898;-57
2022/01/16 08:52:57;;;;;;;38.97;26.33;;;;;;;;;;5048736;28;21012;-56
2022/01/16 08:55:27;;;;;;;37.00;25.63;;;;;;;;;;5052177;28;20173;-56
2022/01/16 08:57:53;;;;;;;38.43;25.70;;;;;;;;;;5054132;28;20471;-55
2022/01/16 09:00:19;;;;;;;39.57;26.17;;;;;;;;;;5051483;28;20407;-56
2022/01/16 09:02:46;;;;;;;38.43;27.27;;;;;;;;;;5051539;28;20486;-57
2022/01/16 09:05:12;;;;;;;38.03;24.90;;;;;;;;;;5057255;28;20913;-57
2022/01/16 09:07:38;;;;;;;34.20;23.87;;;;;;;;;;5051730;28;20415;-56
2022/01/16 09:10:05;;;;;;;36.37;26.07;;;;;;;;;;5049596;28;20420;-55
2022/01/16 09:12:34;;;;;;;35.13;25.23;;;;;;;;;;5054948;28;20888;-56
2022/01/16 09:15:00;;;;;;;38.27;25.63;;;;;;;;;;5047017;28;20535;-57
2022/01/16 09:17:27;;;;;;;35.23;25.63;;;;;;;;;;5048209;28;20423;-57
2022/01/16 09:19:53;;;;;;;37.33;25.40;;;;;;;;;;5049182;28;20510;-56
2022/01/16 09:22:19;;;;;;;37.53;25.07;;;;;;;;;;5047863;28;20423;-57
2022/01/16 09:24:45;;;;;;;36.33;24.33;;;;;;;;;;5047349;28;21159;-56
2022/01/16 09:27:11;;;;;;;34.03;26.23;;;;;;;;;;5046206;28;20523;-57
2022/01/16 09:29:37;;;;;;;44.30;26.17;;;;;;;;;;5047285;28;20979;-56
2022/01/16 09:32:05;;;;;;;35.47;24.77;;;;;;;;;;5046043;28;20498;-56
2022/01/16 09:34:34;;;;;;;35.60;25.10;;;;;;;;;;5046132;28;20838;-57
2022/01/16 09:37:04;;;;;;;36.93;24.10;;;;;;;;;;5044625;28;20422;-57
2022/01/16 09:39:30;;;;;;;34.87;24.17;;;;;;;;;;5040862;28;20424;-57
2022/01/16 09:41:57;;;;;;;36.53;25.17;;;;;;;;;;5045690;28;20423;-56
2022/01/16 09:44:23;;;;;;;40.37;25.33;;;;;;;;;;5045914;28;20718;-56
2022/01/16 09:46:49;;;;;;;32.17;22.93;;;;;;;;;;5044838;28;20770;-57
2022/01/16 09:49:15;;;;;;;35.17;24.53;;;;;;;;;;5046493;28;20774;-56
2022/01/16 09:51:41;;;;;;;36.17;24.47;;;;;;;;;;5045638;28;20471;-56
2022/01/16 09:54:08;;;;;;;39.67;26.23;;;;;;;;;;5047384;28;20952;-57
2022/01/16 09:56:35;;;;;;;41.03;26.23;;;;;;;;;;5042470;28;20284;-57
2022/01/16 09:59:01;;;;;;;36.40;24.87;;;;;;;;;;5045923;28;20427;-57
2022/01/16 10:01:27;;;;;;;35.37;24.30;;;;;;;;;;5044883;28;20481;-57
2022/01/16 10:03:54;;;;;;;38.47;24.43;;;;;;;;;;5042436;28;20423;-56
2022/01/16 10:06:21;;;;;;;34.83;23.00;;;;;;;;;;5046367;28;20831;-56
2022/01/16 10:08:54;;;;;;;35.10;23.27;;;;;;;;;;5041185;28;20193;-57
2022/01/16 10:11:28;;;;;;;31.67;23.20;;;;;;;;;;5045432;28;20476;-57
2022/01/16 10:14:01;;;;;;;36.07;24.27;;;;;;;;;;5046702;28;20505;-56
2022/01/16 10:16:28;;;;;;;31.97;23.47;;;;;;;;;;5045555;28;20165;-58
2022/01/16 10:18:55;;;;;;;34.13;23.83;;;;;;;;;;5046513;28;20423;-56
2022/01/16 10:21:35;;;;;;;39.63;24.37;;;;;;;;;;5047096;28;20447;-55
2022/01/16 10:24:15;;;;;;;36.53;23.17;;;;;;;;;;5046809;28;20179;-57
2022/01/16 10:26:41;;;;;;;33.53;24.23;;;;;;;;;;5042855;28;20177;-56
2022/01/16 10:29:08;;;;;;;36.53;23.23;;;;;;;;;;5044050;28;20505;-56
2022/01/16 10:31:34;;;;;;;39.60;24.80;;;;;;;;;;5039208;28;20205;-56
2022/01/16 10:34:00;;;;;;;34.37;24.70;;;;;;;;;;5046402;28;20185;-56
2022/01/16 10:36:32;;;;;;;42.40;24.73;;;;;;;;;;5047589;28;20256;-57
2022/01/16 10:39:13;;;;;;;34.23;23.47;;;;;;;;;;5044887;28;20411;-57
2022/01/16 10:41:39;;;;;;;36.40;25.50;;;;;;;;;;5029898;28;20185;-55
2022/01/16 10:44:28;;;;;;;37.00;25.70;;;;;;;;;;5041610;28;20189;-56
2022/01/16 10:47:14;;;;;;;39.17;26.93;;;;;;;;;;5042147;28;20157;-57
2022/01/16 10:49:40;;;;;;;41.10;27.30;;;;;;;;;;5044057;28;20275;-56
2022/01/16 10:52:10;;;;;;;39.97;26.87;;;;;;;;;;5037370;28;20944;-56
2022/01/16 10:54:40;;;;;;;40.97;27.83;;;;;;;;;;5045376;28;20432;-56
2022/01/16 10:57:26;;;;;;;42.67;26.07;;;;;;;;;;5028512;28;20446;-57
2022/01/16 11:00:13;;;;;;;40.03;26.30;;;;;;;;;;5038875;28;20432;-57
2022/01/16 11:02:43;;;;;;;47.60;27.77;;;;;;;;;;5053239;28;20173;-56
2022/01/16 11:05:14;;;;;;;38.43;24.87;;;;;;;;;;5046954;28;20683;-56
2022/01/16 11:07:42;;;;;;;34.43;24.97;;;;;;;;;;5044089;28;20188;-56
2022/01/16 11:10:28;;;;;;;40.17;26.20;;;;;;;;;;5043286;28;20215;-56
2022/01/16 11:12:56;;;;;;;38.20;25.77;;;;;;;;;;5040130;28;20219;-56
2022/01/16 11:15:22;;;;;;;40.50;26.67;;;;;;;;;;5035949;28;20294;-56
2022/01/16 11:17:48;;;;;;;41.03;26.73;;;;;;;;;;5038622;28;20188;-57
2022/01/16 11:20:17;;;;;;;45.43;26.90;;;;;;;;;;5043831;28;20205;-57
2022/01/16 11:25:31;;;;;;;44.57;27.80;;;;;;;;;;5040655;28;20186;-57
2022/01/16 11:28:05;;;;;;;39.77;26.33;;;;;;;;;;5047491;28;20628;-57
2022/01/16 11:30:32;;;;;;;40.70;26.53;;;;;;;;;;5040318;28;20276;-56
2022/01/16 11:32:59;;;;;;;37.93;25.60;;;;;;;;;;5042302;28;20463;-59
2022/01/16 11:35:28;;;;;;;39.20;25.03;;;;;;;;;;5044969;28;20192;-56
2022/01/16 11:37:55;;;;;;;41.33;24.93;;;;;;;;;;5042503;28;20605;-56
2022/01/16 11:40:25;;;;;;;36.40;25.40;;;;;;;;;;5046747;28;20185;-56
2022/01/16 11:43:10;;;;;;;36.87;24.37;;;;;;;;;;5039899;28;20636;-57
2022/01/16 11:45:45;;;;;;;45.27;28.10;;;;;;;;;;5044217;28;20631;-56
2022/01/16 11:48:11;;;;;;;39.20;24.93;;;;;;;;;;5044548;28;20180;-57
2022/01/16 11:50:37;;;;;;;53.83;29.07;;;;;;;;;;5041949;28;20272;-55
2022/01/16 11:53:04;;;;;;;47.00;26.37;;;;;;;;;;5043570;28;20268;-57
2022/01/16 11:55:34;;;;;;;48.77;26.50;;;;;;;;;;5041052;28;20256;-57
2022/01/16 11:58:03;;;;;;;56.70;28.17;;;;;;;;;;5056293;28;20264;-56
2022/01/16 12:00:48;;;;;;;48.13;28.33;;;;;;;;;;5046773;28;20176;-56
2022/01/16 12:03:33;;;;;;;45.13;24.80;;;;;;;;;;5045320;28;20276;-57
2022/01/16 12:06:18;;;;;;;41.07;26.00;;;;;;;;;;5046386;28;20599;-56
2022/01/16 12:08:55;;;;;;;48.73;27.40;;;;;;;;;;5045036;28;20217;-57
2022/01/16 12:11:38;;;;;;;50.00;29.17;;;;;;;;;;5042870;28;20637;-56
2022/01/16 12:14:04;;;;;;;45.17;26.10;;;;;;;;;;5046765;28;20173;-55
2022/01/16 12:16:44;;;;;;;45.70;25.37;;;;;;;;;;5043035;28;20178;-57
2022/01/16 12:19:28;;;;;;;44.87;26.47;;;;;;;;;;5049417;28;20582;-57
2022/01/16 12:21:55;;;;;;;43.47;26.00;;;;;;;;;;5037242;28;20181;-57
2022/01/16 12:24:54;;;;;;;42.40;24.37;;;;;;;;;;5040513;28;20201;-56
2022/01/16 12:27:29;;;;;;;49.77;25.30;;;;;;;;;;5038844;28;20639;-56
2022/01/16 12:30:15;;;;;;;43.53;25.37;;;;;;;;;;5040032;28;20177;-56
2022/01/16 12:32:52;;;;;;;42.33;25.20;;;;;;;;;;5038371;28;20193;-57
2022/01/16 12:35:37;;;;;;;40.40;23.50;;;;;;;;;;5044222;28;20192;-56
2022/01/16 12:38:09;;;;;;;43.83;23.93;;;;;;;;;;5044956;28;20265;-57
2022/01/16 12:40:38;;;;;;;44.43;25.27;;;;;;;;;;5053831;28;20177;-56
2022/01/16 12:43:05;;;;;;;44.43;25.33;;;;;;;;;;5059771;28;20426;-56
2022/01/16 12:45:41;;;;;;;39.20;23.63;;;;;;;;;;5043342;28;20201;-56
2022/01/16 12:48:08;;;;;;;38.23;23.70;;;;;;;;;;5043997;28;20172;-55
2022/01/16 12:50:34;;;;;;;41.73;24.63;;;;;;;;;;5044079;28;20218;-55
2022/01/16 12:53:01;;;;;;;40.47;22.43;;;;;;;;;;5044507;28;20699;-56
2022/01/16 12:55:28;;;;;;;39.13;22.60;;;;;;;;;;5045443;28;20657;-57
2022/01/16 12:57:54;;;;;;;45.13;24.13;;;;;;;;;;5045710;28;20189;-55
2022/01/16 13:00:20;;;;;;;48.50;23.27;;;;;;;;;;5051584;28;20173;-57
2022/01/16 13:02:53;;;;;;;57.57;26.53;;;;;;;;;;5059776;28;20180;-57
2022/01/16 13:05:20;;;;;;;56.73;23.80;;;;;;;;;;5048130;28;20579;-57
2022/01/16 13:07:46;;;;;;;46.60;23.00;;;;;;;;;;5046403;28;20173;-57
2022/01/16 13:10:12;;;;;;;51.20;23.83;;;;;;;;;;5056031;28;20567;-56
2022/01/16 13:12:41;;;;;;;40.57;22.53;;;;;;;;;;5059225;28;20724;-56
2022/01/16 13:15:07;;;;;;;41.43;21.80;;;;;;;;;;5044645;28;20173;-56
2022/01/16 13:17:34;;;;;;;41.10;26.97;;;;;;;;;;5048833;28;20382;-57
2022/01/16 13:20:02;;;;;;;41.73;23.03;;;;;;;;;;5052662;28;20165;-57
2022/01/16 13:22:30;;;;;;;39.30;21.07;;;;;;;;;;5052852;28;20188;-56
2022/01/16 13:24:57;;;;;;;41.78;26.95;;;;;;;;;;5046817;28;20433;-59
2022/01/16 13:27:25;;;;;;;36.43;21.30;;;;;;;;;;5052979;28;20219;-57
2022/01/16 13:29:59;;;;;;;38.07;22.30;;;;;;;;;;5043324;28;20196;-57
2022/01/16 13:32:28;;;;;;;42.37;21.27;;;;;;;;;;5045962;28;20193;-57
2022/01/16 13:34:55;;;;;;;35.17;20.23;;;;;;;;;;5055211;28;20202;-57
2022/01/16 13:37:26;;;;;;;34.43;20.97;;;;;;;;;;5046198;28;20533;-57
2022/01/16 13:39:53;;;;;;;35.63;19.20;;;;;;;;;;5052910;28;20176;-57
2022/01/16 13:42:51;;;;;;;33.00;20.47;;;;;;;;;;5056941;28;20173;-56
2022/01/16 13:45:18;;;;;;;34.93;20.43;;;;;;;;;;5053520;28;20166;-57
2022/01/16 13:47:50;;;;;;;33.47;20.23;;;;;;;;;;5064487;28;20174;-57
2022/01/16 13:50:16;;;;;;;33.33;19.73;;;;;;;;;;5047361;28;20180;-57
2022/01/16 13:52:56;;;;;;;30.93;18.93;;;;;;;;;;5051030;28;20220;-56
2022/01/16 13:55:22;;;;;;;32.50;20.47;;;;;;;;;;5048426;28;20169;-57
2022/01/16 13:57:48;;;;;;;29.50;19.73;;;;;;;;;;5049180;28;20193;-57
2022/01/16 14:00:15;;;;;;;33.00;19.53;;;;;;;;;;5046318;28;20177;-57
2022/01/16 14:02:41;;;;;;;31.40;18.93;;;;;;;;;;5049099;28;20604;-57
2022/01/16 14:05:07;;;;;;;32.83;21.37;;;;;;;;;;5059222;28;20178;-57
2022/01/16 14:07:33;;;;;;;32.63;20.23;;;;;;;;;;5053247;28;20188;-57
2022/01/16 14:09:59;;;;;;;32.37;20.77;;;;;;;;;;5046773;28;20170;-57
2022/01/16 14:12:32;;;;;;;31.97;19.93;;;;;;;;;;5050918;28;20327;-57
2022/01/16 14:14:58;;;;;;;31.83;19.50;;;;;;;;;;5053695;28;20181;-57
2022/01/16 14:17:28;;;;;;;30.80;19.13;;;;;;;;;;5044336;28;20185;-57
2022/01/16 14:20:21;;;;;;;33.57;21.63;;;;;;;;;;5043246;28;20173;-56
2022/01/16 14:22:40;;;;;;;31.70;20.27;;;;;;;;;;5049716;28;20192;-57
2022/01/16 14:25:06;;;;;;;33.17;20.97;;;;;;;;;;5060963;28;20643;-57
2022/01/16 14:27:36;;;;;;;36.57;21.07;;;;;;;;;;5059847;28;20188;-57
2022/01/16 14:30:12;;;;;;;31.73;19.80;;;;;;;;;;5051922;28;20593;-57
2022/01/16 14:32:39;;;;;;;31.43;20.23;;;;;;;;;;5044010;28;20221;-57
2022/01/16 14:35:05;;;;;;;34.40;20.57;;;;;;;;;;5048231;28;20177;-57
2022/01/16 14:37:32;;;;;;;30.47;19.60;;;;;;;;;;5055238;28;20647;-57
2022/01/16 14:40:00;;;;;;;32.43;20.43;;;;;;;;;;5055046;28;20198;-57
2022/01/16 14:42:30;;;;;;;30.60;20.17;;;;;;;;;;5068230;28;20657;-57
2022/01/16 14:44:57;;;;;;;29.67;19.70;;;;;;;;;;5045658;28;20220;-58
2022/01/16 14:47:23;;;;;;;30.93;19.87;;;;;;;;;;5056288;28;20213;-57
2022/01/16 14:49:49;;;;;;;33.07;20.13;;;;;;;;;;5051391;28;20637;-58
2022/01/16 14:52:18;;;;;;;32.33;21.53;;;;;;;;;;5042589;28;20688;-58
2022/01/16 14:54:47;;;;;;;29.90;18.93;;;;;;;;;;5047420;28;20585;-57
2022/01/16 14:57:16;;;;;;;33.50;19.97;;;;;;;;;;5047794;28;20581;-57
2022/01/16 14:59:42;;;;;;;30.40;18.93;;;;;;;;;;5056825;28;20272;-57
2022/01/16 15:02:09;;;;;;;33.07;20.17;;;;;;;;;;5063230;28;20180;-57
2022/01/16 15:04:35;;;;;;;30.80;20.20;;;;;;;;;;5054640;28;20716;-57
2022/01/16 15:07:01;;;;;;;30.70;19.20;;;;;;;;;;5041524;28;20652;-57